createdAt,value
2017-01-19T00:00:44.048Z,0
2017-01-19T00:01:44.311Z,0
2017-01-19T00:02:44.023Z,0
2017-01-19T00:03:44.038Z,0
2017-01-19T00:04:44.005Z,0
2017-01-19T00:05:44.030Z,0
2017-01-19T00:06:44.097Z,0
2017-01-19T00:07:44.537Z,0
2017-01-19T00:08:43.943Z,0
2017-01-19T00:09:44.116Z,0
2017-01-19T00:10:43.992Z,0
2017-01-19T00:11:44.056Z,0
2017-01-19T00:12:43.955Z,0
2017-01-19T00:13:44.321Z,0
2017-01-19T00:14:44.006Z,0
2017-01-19T00:15:43.968Z,0
2017-01-19T00:16:43.953Z,0
2017-01-19T00:17:43.967Z,0
2017-01-19T00:18:44.019Z,0
2017-01-19T00:19:43.960Z,0
2017-01-19T00:20:44.129Z,0
2017-01-19T00:21:44.016Z,0
2017-01-19T00:22:43.967Z,0
2017-01-19T00:23:44.020Z,0
2017-01-19T00:24:43.999Z,0
2017-01-19T00:25:44.090Z,0
2017-01-19T00:26:43.985Z,0
2017-01-19T00:27:43.947Z,0
2017-01-19T00:28:43.995Z,0
2017-01-19T00:29:44.084Z,0
2017-01-19T00:30:43.976Z,0
2017-01-19T00:31:44.022Z,0
2017-01-19T00:32:44.048Z,0
2017-01-19T00:33:43.936Z,0
2017-01-19T00:34:44.001Z,0
2017-01-19T00:35:43.973Z,0
2017-01-19T00:36:43.987Z,0
2017-01-19T00:37:44.055Z,0
2017-01-19T00:38:43.972Z,0
2017-01-19T00:39:44.026Z,0
2017-01-19T00:40:43.964Z,0
2017-01-19T00:41:43.970Z,0
2017-01-19T00:42:43.938Z,0
2017-01-19T00:43:43.986Z,0
2017-01-19T00:44:44.171Z,0
2017-01-19T00:45:43.979Z,0
2017-01-19T00:46:43.957Z,0
2017-01-19T00:47:44.139Z,0
2017-01-19T00:48:43.961Z,0
2017-01-19T00:49:44.117Z,0
2017-01-19T00:50:43.997Z,0
2017-01-19T00:51:43.985Z,0
2017-01-19T00:52:46.401Z,0
2017-01-19T00:53:44.101Z,0
2017-01-19T00:54:43.977Z,0
2017-01-19T00:55:44.103Z,0
2017-01-19T00:56:44.055Z,0
2017-01-19T00:57:44.023Z,0
2017-01-19T00:58:44.017Z,0
2017-01-19T00:59:43.982Z,0
2017-01-19T01:00:44.068Z,0
2017-01-19T01:01:43.988Z,0
2017-01-19T01:02:44.054Z,0
2017-01-19T01:03:44.017Z,0
2017-01-19T01:04:44.115Z,0
2017-01-19T01:05:44.051Z,0
2017-01-19T01:06:44.107Z,0
2017-01-19T01:07:45.735Z,0
2017-01-19T01:08:44.065Z,0
2017-01-19T01:09:44.031Z,0
2017-01-19T01:10:44.227Z,0
2017-01-19T01:11:44.061Z,0
2017-01-19T01:12:44.012Z,0
2017-01-19T01:13:44.042Z,0
2017-01-19T01:14:44.029Z,0
2017-01-19T01:15:43.979Z,0
2017-01-19T01:16:44.041Z,0
2017-01-19T01:22:01.677Z,0
2017-01-19T01:22:11.680Z,0
2017-01-19T01:23:11.732Z,0
2017-01-19T01:24:11.696Z,0
2017-01-19T01:25:11.740Z,0
2017-01-19T01:26:11.688Z,0
2017-01-19T01:27:11.802Z,0
2017-01-19T01:28:11.696Z,0
2017-01-19T01:29:11.704Z,0
2017-01-19T01:30:11.785Z,0
2017-01-19T01:31:12.011Z,0
2017-01-19T01:32:11.775Z,0
2017-01-19T01:33:11.921Z,0
2017-01-19T01:34:11.848Z,0
2017-01-19T01:35:12.048Z,0
2017-01-19T01:36:11.793Z,0
2017-01-19T01:37:11.783Z,0
2017-01-19T01:38:11.816Z,0
2017-01-19T01:39:11.813Z,0
2017-01-19T01:40:11.767Z,0
2017-01-19T01:41:11.735Z,0
2017-01-19T01:42:11.758Z,0
2017-01-19T01:43:11.785Z,0
2017-01-19T01:44:11.919Z,0
2017-01-19T01:45:11.719Z,0
2017-01-19T01:46:11.816Z,0
2017-01-19T01:47:11.718Z,0
2017-01-19T01:48:11.725Z,0
2017-01-19T01:49:11.702Z,0
2017-01-19T01:50:11.824Z,0
2017-01-19T01:51:11.786Z,0
2017-01-19T01:52:11.909Z,0
2017-01-19T01:53:11.743Z,0
2017-01-19T01:54:11.743Z,0
2017-01-19T01:55:11.733Z,0
2017-01-19T01:56:11.788Z,0
2017-01-19T01:57:11.777Z,0
2017-01-19T01:58:11.764Z,0
2017-01-19T01:59:11.716Z,0
2017-01-19T02:00:11.711Z,0
2017-01-19T02:01:11.795Z,0
2017-01-19T02:02:11.712Z,0
2017-01-19T02:03:11.728Z,0
2017-01-19T02:04:11.783Z,0
2017-01-19T02:05:11.717Z,0
2017-01-19T02:06:11.738Z,0
2017-01-19T02:07:11.723Z,0
2017-01-19T02:08:11.747Z,0
2017-01-19T02:09:11.736Z,0
2017-01-19T02:10:11.878Z,0
2017-01-19T02:11:11.734Z,0
2017-01-19T02:12:11.854Z,0
2017-01-19T02:13:11.743Z,0
2017-01-19T02:14:11.759Z,0
2017-01-19T02:15:11.738Z,0
2017-01-19T02:16:11.726Z,0
2017-01-19T02:17:11.966Z,0
2017-01-19T02:18:11.941Z,0
2017-01-19T02:19:11.767Z,0
2017-01-19T02:20:11.770Z,0
2017-01-19T02:21:11.784Z,0
2017-01-19T02:25:39.403Z,0
2017-01-19T02:26:39.459Z,0
2017-01-19T02:27:39.374Z,0
2017-01-19T02:28:39.380Z,0
2017-01-19T02:29:39.422Z,0
2017-01-19T02:30:39.407Z,0
2017-01-19T02:31:39.458Z,0
2017-01-19T02:32:39.430Z,0
2017-01-19T02:33:39.493Z,0
2017-01-19T02:34:39.395Z,0
2017-01-19T02:35:39.649Z,0
2017-01-19T02:36:39.485Z,0
2017-01-19T02:37:39.579Z,0
2017-01-19T02:38:39.549Z,0
2017-01-19T02:39:39.517Z,0
2017-01-19T02:40:39.486Z,0
2017-01-19T02:41:39.407Z,0
2017-01-19T02:42:39.489Z,0
2017-01-19T02:43:39.578Z,0
2017-01-19T02:44:39.439Z,0
2017-01-19T02:45:39.449Z,0
2017-01-19T02:46:39.429Z,0
2017-01-19T02:47:39.421Z,0
2017-01-19T02:48:39.509Z,0
2017-01-19T02:49:39.456Z,0
2017-01-19T02:50:39.466Z,0
2017-01-19T02:51:39.515Z,0
2017-01-19T02:52:39.627Z,0
2017-01-19T02:53:39.414Z,0
2017-01-19T02:54:39.437Z,0
2017-01-19T02:55:39.406Z,0
2017-01-19T02:56:39.497Z,0
2017-01-19T02:57:39.603Z,0
2017-01-19T02:58:39.520Z,0
2017-01-19T02:59:39.561Z,0
2017-01-19T03:00:39.428Z,0
2017-01-19T03:01:39.503Z,0
2017-01-19T03:02:39.603Z,0
2017-01-19T03:03:39.493Z,0
2017-01-19T03:04:39.695Z,0
2017-01-19T03:05:39.419Z,0
2017-01-19T03:06:39.454Z,0
2017-01-19T03:07:39.475Z,0
2017-01-19T03:08:39.444Z,0
2017-01-19T03:09:39.515Z,0
2017-01-19T03:10:39.445Z,0
2017-01-19T03:11:39.467Z,0
2017-01-19T03:12:39.631Z,0
2017-01-19T03:13:39.423Z,0
2017-01-19T03:14:39.667Z,0
2017-01-19T03:15:39.532Z,0
2017-01-19T03:16:39.508Z,0
2017-01-19T03:17:39.479Z,0
2017-01-19T03:18:39.492Z,0
2017-01-19T03:19:39.504Z,0
2017-01-19T03:20:39.429Z,0
2017-01-19T03:21:39.692Z,0
2017-01-19T03:29:08.551Z,0
2017-01-19T03:29:31.213Z,0
2017-01-19T03:30:26.173Z,0
2017-01-19T03:31:32.737Z,0
2017-01-19T03:32:30.777Z,0
2017-01-19T03:33:31.282Z,0
2017-01-19T03:34:31.129Z,0
2017-01-19T03:35:31.257Z,0
2017-01-19T03:36:30.456Z,0
2017-01-19T03:37:30.354Z,0
2017-01-19T03:38:31.190Z,0
2017-01-19T03:39:31.564Z,0
2017-01-19T03:40:34.828Z,0
2017-01-19T03:41:31.529Z,0
2017-01-19T03:42:24.778Z,0
2017-01-19T03:43:33.018Z,0
2017-01-19T03:44:32.294Z,0
2017-01-19T03:45:32.109Z,0
2017-01-19T03:46:32.769Z,0
2017-01-19T03:47:30.279Z,0
2017-01-19T03:48:34.550Z,0
2017-01-19T03:49:32.579Z,0
2017-01-19T03:50:33.408Z,0
2017-01-19T03:51:32.146Z,0
2017-01-19T03:52:31.353Z,0
2017-01-19T03:53:35.209Z,0
2017-01-19T03:54:32.013Z,0
2017-01-19T03:55:30.669Z,0
2017-01-19T03:56:33.593Z,0
2017-01-19T03:57:31.050Z,0
2017-01-19T03:58:32.748Z,0
2017-01-19T03:59:31.695Z,0
2017-01-19T04:00:31.787Z,0
2017-01-19T04:01:29.982Z,0
2017-01-19T04:02:31.526Z,0
2017-01-19T04:03:32.150Z,0
2017-01-19T04:08:50.671Z,0
2017-01-19T04:09:19.276Z,0
2017-01-19T04:10:19.547Z,0
2017-01-19T04:11:14.179Z,0
2017-01-19T04:12:13.400Z,0
2017-01-19T04:13:12.967Z,0
2017-01-19T04:14:12.401Z,0
2017-01-19T04:15:13.621Z,0
2017-01-19T04:16:14.681Z,0
2017-01-19T04:17:15.086Z,0
2017-01-19T04:18:16.075Z,0
2017-01-19T04:19:14.489Z,0
2017-01-19T04:20:14.983Z,0
2017-01-19T04:21:15.769Z,0
2017-01-19T04:22:13.948Z,0
2017-01-19T04:23:15.309Z,0
2017-01-19T04:24:16.036Z,0
2017-01-19T04:25:15.362Z,0
2017-01-19T04:26:15.046Z,0
2017-01-19T04:27:14.676Z,0
2017-01-19T04:28:15.330Z,0
2017-01-19T04:29:14.963Z,0
2017-01-19T04:30:14.943Z,0
2017-01-19T04:31:14.707Z,0
2017-01-19T04:32:16.198Z,0
2017-01-19T04:33:15.372Z,0
2017-01-19T04:34:15.143Z,0
2017-01-19T04:35:16.023Z,0
2017-01-19T04:36:17.338Z,0
2017-01-19T04:37:15.157Z,0
2017-01-19T04:38:15.292Z,0
2017-01-19T04:39:14.199Z,0
2017-01-19T04:40:04.008Z,0
2017-01-19T04:41:03.979Z,0
2017-01-19T04:42:04.004Z,0
2017-01-19T04:43:04.013Z,0
2017-01-19T04:44:04.025Z,0
2017-01-19T04:45:04.018Z,0
2017-01-19T04:46:03.995Z,0
2017-01-19T04:47:04.015Z,0
2017-01-19T04:48:04.014Z,0
2017-01-19T04:49:03.987Z,0
2017-01-19T04:50:04.012Z,0
2017-01-19T04:51:04.028Z,0
2017-01-19T04:52:04.012Z,0
2017-01-19T04:53:04.011Z,0
2017-01-19T04:54:04.052Z,0
2017-01-19T04:55:04.014Z,0
2017-01-19T04:56:04.041Z,0
2017-01-19T04:57:04.015Z,0
2017-01-19T04:58:04.024Z,0
2017-01-19T04:59:04.019Z,0
2017-01-19T05:00:04.016Z,0
2017-01-19T05:01:04.023Z,0
2017-01-19T05:02:04.042Z,0
2017-01-19T05:03:04.037Z,0
2017-01-19T05:04:04.015Z,0
2017-01-19T05:05:04.023Z,0
2017-01-19T05:11:41.444Z,0
2017-01-19T05:12:41.411Z,0
2017-01-19T05:13:41.420Z,0
2017-01-19T05:14:41.423Z,0
2017-01-19T05:15:41.411Z,0
2017-01-19T05:16:41.417Z,0
2017-01-19T05:17:41.426Z,0
2017-01-19T05:18:41.445Z,0
2017-01-19T05:19:41.399Z,0
2017-01-19T05:20:41.418Z,0
2017-01-19T05:21:41.414Z,0
2017-01-19T05:22:41.459Z,0
2017-01-19T05:23:41.433Z,0
2017-01-19T05:24:41.432Z,0
2017-01-19T05:25:41.425Z,0
2017-01-19T05:26:41.442Z,0
2017-01-19T05:27:41.474Z,0
2017-01-19T05:28:41.461Z,0
2017-01-19T05:29:41.424Z,0
2017-01-19T05:30:41.455Z,0
2017-01-19T05:31:41.449Z,0
2017-01-19T05:32:41.425Z,0
2017-01-19T05:33:41.434Z,0
2017-01-19T05:34:41.437Z,0
2017-01-19T05:35:41.463Z,0
2017-01-19T05:36:41.426Z,0
2017-01-19T05:37:41.417Z,0
2017-01-19T05:38:41.425Z,0
2017-01-19T05:39:41.434Z,0
2017-01-19T05:40:41.405Z,0
2017-01-19T05:41:41.437Z,0
2017-01-19T05:42:41.462Z,0
2017-01-19T05:43:41.411Z,0
2017-01-19T05:44:41.552Z,0
2017-01-19T05:45:41.437Z,0
2017-01-19T05:46:41.452Z,0
2017-01-19T05:47:41.430Z,0
2017-01-19T05:48:41.456Z,0
2017-01-19T05:49:41.420Z,0
2017-01-19T05:50:41.454Z,0
2017-01-19T05:51:41.434Z,0
2017-01-19T05:52:41.474Z,0
2017-01-19T05:53:41.436Z,0
2017-01-19T05:54:41.438Z,0
2017-01-19T05:55:41.471Z,0
2017-01-19T05:56:41.468Z,0
2017-01-19T05:57:41.443Z,0
2017-01-19T05:58:41.443Z,0
2017-01-19T05:59:41.430Z,0
2017-01-19T06:00:41.494Z,0
2017-01-19T06:01:41.489Z,0
2017-01-19T06:02:41.466Z,0
2017-01-19T06:03:41.488Z,0
2017-01-19T06:04:41.469Z,0
2017-01-19T06:05:41.427Z,0
2017-01-19T06:06:41.526Z,0
2017-01-19T06:07:41.456Z,0
2017-01-19T06:08:41.476Z,0
2017-01-19T06:09:41.424Z,0
2017-01-19T06:10:41.469Z,0
2017-01-19T06:11:41.493Z,0
2017-01-19T06:12:41.460Z,0
2017-01-19T06:13:41.456Z,0
2017-01-19T06:14:41.464Z,0
2017-01-19T06:15:41.484Z,0
2017-01-19T06:16:41.474Z,0
2017-01-19T06:17:41.466Z,0
2017-01-19T06:18:41.453Z,0
2017-01-19T06:19:41.466Z,0
2017-01-19T06:20:41.484Z,0
2017-01-19T06:21:41.522Z,0
2017-01-19T06:22:41.517Z,0
2017-01-19T06:23:41.520Z,0
2017-01-19T06:24:41.484Z,0
2017-01-19T06:25:41.576Z,0
2017-01-19T06:26:41.453Z,0
2017-01-19T06:27:41.462Z,0
2017-01-19T06:28:41.504Z,0
2017-01-19T06:29:41.535Z,0
2017-01-19T06:30:41.474Z,0
2017-01-19T06:31:41.509Z,0
2017-01-19T06:32:41.458Z,0
2017-01-19T06:33:41.464Z,0
2017-01-19T06:34:41.493Z,0
2017-01-19T06:35:41.447Z,0
2017-01-19T06:36:41.597Z,0
2017-01-19T06:37:41.507Z,0
2017-01-19T06:38:41.541Z,0
2017-01-19T06:39:41.467Z,0
2017-01-19T06:40:41.546Z,0
2017-01-19T06:41:41.591Z,0
2017-01-19T06:42:41.465Z,0
2017-01-19T06:43:41.465Z,0
2017-01-19T06:44:41.510Z,0
2017-01-19T06:45:41.463Z,0
2017-01-19T06:46:41.488Z,0
2017-01-19T06:47:41.523Z,0
2017-01-19T06:48:41.513Z,0
2017-01-19T06:49:41.617Z,0
2017-01-19T06:50:41.572Z,0
2017-01-19T06:51:41.525Z,0
2017-01-19T06:52:41.449Z,0
2017-01-19T06:53:41.512Z,0
2017-01-19T06:54:41.565Z,0
2017-01-19T06:55:41.464Z,0
2017-01-19T06:56:41.501Z,0
2017-01-19T06:57:41.513Z,0
2017-01-19T06:58:41.521Z,0
2017-01-19T06:59:41.597Z,0
2017-01-19T07:00:41.493Z,0
2017-01-19T07:01:41.497Z,0
2017-01-19T07:02:41.512Z,0
2017-01-19T07:03:41.513Z,0
2017-01-19T07:04:41.523Z,0
2017-01-19T07:05:41.505Z,0
2017-01-19T07:06:41.471Z,0
2017-01-19T07:07:41.493Z,0
2017-01-19T07:08:41.460Z,0
2017-01-19T07:09:41.480Z,0
2017-01-19T07:10:41.493Z,0
2017-01-19T07:11:41.492Z,0
2017-01-19T07:12:41.810Z,0
2017-01-19T07:13:41.682Z,0
2017-01-19T07:14:41.501Z,0
2017-01-19T07:15:41.637Z,0
2017-01-19T07:16:42.255Z,0
2017-01-19T07:17:41.664Z,0
2017-01-19T07:18:41.495Z,0
2017-01-19T07:19:41.468Z,0
2017-01-19T07:20:41.480Z,5
2017-01-19T07:21:41.535Z,5
2017-01-19T07:22:41.567Z,5
2017-01-19T07:23:41.490Z,5
2017-01-19T07:24:41.506Z,5
2017-01-19T07:25:41.469Z,5
2017-01-19T07:26:41.564Z,5
2017-01-19T07:27:41.525Z,5
2017-01-19T07:28:41.495Z,10
2017-01-19T07:29:41.487Z,10
2017-01-19T07:30:41.485Z,10
2017-01-19T07:31:41.614Z,10
2017-01-19T07:32:41.512Z,10
2017-01-19T07:33:41.599Z,10
2017-01-19T07:34:41.507Z,10
2017-01-19T07:35:41.565Z,10
2017-01-19T07:36:41.511Z,15
2017-01-19T07:37:41.505Z,15
2017-01-19T07:38:41.496Z,15
2017-01-19T07:39:41.566Z,15
2017-01-19T07:40:41.540Z,15
2017-01-19T07:41:41.527Z,15
2017-01-19T07:42:41.489Z,20
2017-01-19T07:43:41.501Z,20
2017-01-19T07:44:41.560Z,20
2017-01-19T07:45:41.564Z,20
2017-01-19T07:46:41.604Z,20
2017-01-19T07:47:41.535Z,20
2017-01-19T07:48:41.509Z,25
2017-01-19T07:49:41.523Z,25
2017-01-19T07:50:41.530Z,25
2017-01-19T07:51:41.557Z,25
2017-01-19T07:52:41.650Z,30
2017-01-19T07:53:41.515Z,30
2017-01-19T07:54:41.509Z,30
2017-01-19T07:55:41.523Z,30
2017-01-19T07:56:41.611Z,35
2017-01-19T07:57:41.510Z,35
2017-01-19T07:58:41.527Z,40
2017-01-19T07:59:41.560Z,40
2017-01-19T08:00:41.534Z,40
2017-01-19T08:01:41.569Z,40
2017-01-19T08:02:41.519Z,45
2017-01-19T08:03:41.621Z,45
2017-01-19T08:04:41.534Z,45
2017-01-19T08:05:41.548Z,45
2017-01-19T08:06:41.671Z,45
2017-01-19T08:07:41.493Z,45
2017-01-19T08:08:41.520Z,45
2017-01-19T08:09:41.571Z,50
2017-01-19T08:10:41.545Z,50
2017-01-19T08:11:41.529Z,50
2017-01-19T08:12:41.531Z,50
2017-01-19T08:13:41.569Z,50
2017-01-19T08:14:41.518Z,50
2017-01-19T08:15:41.560Z,55
2017-01-19T08:16:41.557Z,55
2017-01-19T08:17:41.540Z,55
2017-01-19T08:18:41.527Z,55
2017-01-19T08:19:41.600Z,55
2017-01-19T08:20:41.545Z,55
2017-01-19T08:21:41.549Z,55
2017-01-19T08:22:41.602Z,55
2017-01-19T08:23:41.572Z,60
2017-01-19T08:24:41.539Z,60
2017-01-19T08:25:41.631Z,60
2017-01-19T08:26:41.584Z,60
2017-01-19T08:27:41.577Z,60
2017-01-19T08:28:41.591Z,60
2017-01-19T08:29:41.544Z,65
2017-01-19T08:30:41.568Z,70
2017-01-19T08:31:41.578Z,70
2017-01-19T08:32:41.635Z,70
2017-01-19T08:33:41.616Z,75
2017-01-19T08:34:41.587Z,75
2017-01-19T08:35:41.537Z,75
2017-01-19T08:36:41.623Z,80
2017-01-19T08:37:41.585Z,80
2017-01-19T08:38:43.085Z,80
2017-01-19T08:39:41.669Z,80
2017-01-19T08:40:41.571Z,75
2017-01-19T08:41:41.696Z,75
2017-01-19T08:42:41.702Z,75
2017-01-19T08:43:41.597Z,80
2017-01-19T08:44:41.556Z,80
2017-01-19T08:45:41.587Z,75
2017-01-19T08:46:41.648Z,75
2017-01-19T08:47:41.690Z,80
2017-01-19T08:48:41.636Z,80
2017-01-19T08:49:41.704Z,80
2017-01-19T08:50:41.581Z,80
2017-01-19T08:51:41.626Z,85
2017-01-19T08:52:41.596Z,85
2017-01-19T08:53:41.561Z,85
2017-01-19T08:54:41.605Z,85
2017-01-19T08:55:41.567Z,80
2017-01-19T08:56:41.548Z,80
2017-01-19T08:57:41.551Z,80
2017-01-19T08:58:41.620Z,75
2017-01-19T08:59:41.529Z,75
2017-01-19T09:00:41.589Z,75
2017-01-19T09:01:41.585Z,75
2017-01-19T09:02:41.647Z,75
2017-01-19T09:03:41.573Z,80
2017-01-19T09:04:41.575Z,80
2017-01-19T09:05:41.630Z,80
2017-01-19T09:06:41.540Z,85
2017-01-19T09:07:41.598Z,85
2017-01-19T09:08:41.586Z,80
2017-01-19T09:09:41.612Z,80
2017-01-19T09:10:41.544Z,80
2017-01-19T09:11:41.570Z,80
2017-01-19T09:12:41.583Z,75
2017-01-19T09:13:41.562Z,80
2017-01-19T09:14:41.556Z,80
2017-01-19T09:15:41.569Z,85
2017-01-19T09:16:41.623Z,80
2017-01-19T09:17:41.598Z,80
2017-01-19T09:18:41.658Z,80
2017-01-19T09:19:41.588Z,80
2017-01-19T09:20:41.658Z,80
2017-01-19T09:21:41.661Z,80
2017-01-19T09:22:41.544Z,80
2017-01-19T09:23:41.575Z,80
2017-01-19T09:24:41.545Z,80
2017-01-19T09:25:41.554Z,80
2017-01-19T09:26:41.640Z,80
2017-01-19T09:27:41.597Z,85
2017-01-19T09:28:41.696Z,85
2017-01-19T09:29:41.655Z,85
2017-01-19T09:30:41.631Z,85
2017-01-19T09:31:41.591Z,85
2017-01-19T09:32:41.632Z,90
2017-01-19T09:33:42.305Z,90
2017-01-19T09:34:41.683Z,90
2017-01-19T09:35:41.560Z,90
2017-01-19T09:36:41.653Z,90
2017-01-19T09:37:41.786Z,95
2017-01-19T09:38:41.605Z,95
2017-01-19T09:39:41.739Z,95
2017-01-19T09:40:41.562Z,95
2017-01-19T09:41:41.810Z,100
2017-01-19T09:42:41.578Z,100
2017-01-19T09:43:41.584Z,100
2017-01-19T09:44:41.816Z,105
2017-01-19T09:45:41.743Z,110
2017-01-19T09:46:41.603Z,115
2017-01-19T09:47:41.867Z,120
2017-01-19T09:52:58.422Z,115
2017-01-19T09:53:08.504Z,115
2017-01-19T09:54:08.459Z,115
2017-01-19T09:55:08.762Z,120
2017-01-19T09:56:08.555Z,120
2017-01-19T09:57:08.472Z,125
2017-01-19T09:58:08.464Z,120
2017-01-19T09:59:08.472Z,120
2017-01-19T10:00:08.550Z,125
2017-01-19T10:01:08.500Z,125
2017-01-19T10:02:08.455Z,125
2017-01-19T10:03:08.606Z,130
2017-01-19T10:04:08.558Z,135
2017-01-19T10:05:08.556Z,145
2017-01-19T10:06:08.588Z,140
2017-01-19T10:07:08.528Z,145
2017-01-19T10:08:08.604Z,145
2017-01-19T10:09:08.466Z,145
2017-01-19T10:10:08.487Z,140
2017-01-19T10:11:08.483Z,140
2017-01-19T10:12:08.475Z,145
2017-01-19T10:13:08.456Z,145
2017-01-19T10:14:08.462Z,145
2017-01-19T10:15:08.495Z,140
2017-01-19T10:16:08.465Z,140
2017-01-19T10:17:08.445Z,140
2017-01-19T10:18:08.481Z,145
2017-01-19T10:19:08.454Z,150
2017-01-19T10:20:08.546Z,145
2017-01-19T10:21:08.584Z,145
2017-01-19T10:22:08.482Z,145
2017-01-19T10:23:08.514Z,140
2017-01-19T10:24:08.470Z,135
2017-01-19T10:25:08.479Z,135
2017-01-19T10:26:08.471Z,140
2017-01-19T10:27:08.464Z,145
2017-01-19T10:28:08.497Z,150
2017-01-19T10:29:08.481Z,155
2017-01-19T10:30:08.542Z,155
2017-01-19T10:31:08.748Z,155
2017-01-19T10:32:08.510Z,155
2017-01-19T10:33:08.480Z,150
2017-01-19T10:34:08.482Z,155
2017-01-19T10:35:08.495Z,150
2017-01-19T10:36:08.449Z,155
2017-01-19T10:37:08.540Z,155
2017-01-19T10:38:08.469Z,155
2017-01-19T10:39:08.480Z,155
2017-01-19T10:40:08.471Z,160
2017-01-19T10:41:08.550Z,155
2017-01-19T10:42:08.477Z,140
2017-01-19T10:43:08.447Z,130
2017-01-19T10:44:08.452Z,135
2017-01-19T10:45:08.476Z,135
2017-01-19T10:46:08.481Z,135
2017-01-19T10:47:08.484Z,140
2017-01-19T10:48:08.477Z,135
2017-01-19T10:49:08.491Z,135
2017-01-19T10:50:08.480Z,135
2017-01-19T10:51:08.483Z,135
2017-01-19T10:52:08.492Z,135
2017-01-19T10:53:08.472Z,135
2017-01-19T10:54:08.611Z,135
2017-01-19T10:55:08.467Z,135
2017-01-19T10:56:08.507Z,140
2017-01-19T10:57:08.506Z,140
2017-01-19T10:58:08.502Z,140
2017-01-19T10:59:08.486Z,140
2017-01-19T11:00:08.528Z,140
2017-01-19T11:01:08.512Z,140
2017-01-19T11:02:08.506Z,135
2017-01-19T11:03:08.508Z,125
2017-01-19T11:04:08.488Z,120
2017-01-19T11:05:08.488Z,115
2017-01-19T11:06:08.623Z,115
2017-01-19T11:07:08.541Z,115
2017-01-19T11:08:08.496Z,110
2017-01-19T11:09:08.514Z,105
2017-01-19T11:10:08.511Z,105
2017-01-19T11:11:08.527Z,105
2017-01-19T11:12:08.500Z,100
2017-01-19T11:13:08.493Z,100
2017-01-19T11:14:08.492Z,100
2017-01-19T11:15:08.502Z,100
2017-01-19T11:16:08.525Z,100
2017-01-19T11:17:08.502Z,95
2017-01-19T11:18:08.497Z,100
2017-01-19T11:19:08.543Z,100
2017-01-19T11:20:08.538Z,100
2017-01-19T11:21:08.498Z,105
2017-01-19T11:22:08.491Z,95
2017-01-19T11:23:08.497Z,95
2017-01-19T11:24:08.505Z,95
2017-01-19T11:25:08.491Z,95
2017-01-19T11:26:08.544Z,95
2017-01-19T11:27:08.497Z,100
2017-01-19T11:28:08.541Z,100
2017-01-19T11:29:08.512Z,95
2017-01-19T11:30:08.525Z,95
2017-01-19T11:31:08.552Z,95
2017-01-19T11:32:08.517Z,95
2017-01-19T11:33:08.521Z,100
2017-01-19T11:34:08.509Z,100
2017-01-19T11:35:08.537Z,100
2017-01-19T11:36:08.593Z,100
2017-01-19T11:37:08.552Z,100
2017-01-19T11:38:08.531Z,100
2017-01-19T11:39:08.534Z,100
2017-01-19T11:40:08.535Z,100
2017-01-19T11:41:08.521Z,100
2017-01-19T11:42:08.513Z,105
2017-01-19T11:43:08.577Z,105
2017-01-19T11:44:08.555Z,105
2017-01-19T11:45:08.777Z,105
2017-01-19T11:46:08.502Z,105
2017-01-19T11:47:08.561Z,105
2017-01-19T11:48:09.019Z,105
2017-01-19T11:49:08.538Z,105
2017-01-19T11:50:08.663Z,105
2017-01-19T11:51:08.676Z,105
2017-01-19T11:52:08.535Z,105
2017-01-19T11:53:08.543Z,105
2017-01-19T11:54:08.518Z,105
2017-01-19T11:55:08.544Z,105
2017-01-19T11:56:08.541Z,105
2017-01-19T11:57:08.606Z,105
2017-01-19T11:58:08.590Z,105
2017-01-19T11:59:08.537Z,105
2017-01-19T12:00:08.584Z,105
2017-01-19T12:01:08.812Z,105
2017-01-19T12:02:08.582Z,105
2017-01-19T12:03:08.545Z,105
2017-01-19T12:04:08.629Z,105
2017-01-19T12:05:08.619Z,105
2017-01-19T12:06:08.572Z,105
2017-01-19T12:07:12.044Z,105
2017-01-19T12:08:08.558Z,105
2017-01-19T12:09:08.555Z,105
2017-01-19T12:10:08.647Z,105
2017-01-19T12:11:08.605Z,105
2017-01-19T12:12:08.611Z,105
2017-01-19T12:13:08.605Z,105
2017-01-19T12:14:08.541Z,105
2017-01-19T12:15:08.528Z,105
2017-01-19T12:16:08.539Z,105
2017-01-19T12:17:08.578Z,105
2017-01-19T12:18:08.603Z,105
2017-01-19T12:19:09.276Z,105
2017-01-19T12:20:08.631Z,105
2017-01-19T12:21:08.622Z,105
2017-01-19T12:22:08.607Z,105
2017-01-19T12:23:08.601Z,105
2017-01-19T12:24:08.566Z,100
2017-01-19T12:25:08.634Z,100
2017-01-19T12:26:08.556Z,100
2017-01-19T12:27:08.561Z,100
2017-01-19T12:28:08.582Z,100
2017-01-19T12:29:08.525Z,100
2017-01-19T12:30:08.589Z,100
2017-01-19T12:31:08.553Z,100
2017-01-19T12:32:08.619Z,100
2017-01-19T12:33:08.569Z,100
2017-01-19T12:34:08.612Z,100
2017-01-19T12:35:08.542Z,100
2017-01-19T12:36:08.582Z,100
2017-01-19T12:37:08.576Z,100
2017-01-19T12:38:08.621Z,100
2017-01-19T12:39:09.230Z,100
2017-01-19T12:40:08.561Z,100
2017-01-19T12:41:08.589Z,100
2017-01-19T12:42:08.668Z,100
2017-01-19T12:43:08.581Z,100
2017-01-19T12:44:08.685Z,100
2017-01-19T12:45:08.742Z,100
2017-01-19T12:46:08.612Z,100
2017-01-19T12:47:08.589Z,100
2017-01-19T12:48:08.571Z,100
2017-01-19T12:49:08.616Z,100
2017-01-19T12:50:08.556Z,100
2017-01-19T12:51:08.597Z,100
2017-01-19T12:52:08.574Z,100
2017-01-19T12:53:08.631Z,100
2017-01-19T12:54:08.575Z,100
2017-01-19T12:55:08.595Z,100
2017-01-19T12:56:08.581Z,100
2017-01-19T12:57:08.573Z,100
2017-01-19T12:58:08.714Z,100
2017-01-19T12:59:09.746Z,100
2017-01-19T13:00:08.608Z,100
2017-01-19T13:01:08.582Z,100
2017-01-19T13:02:08.575Z,100
2017-01-19T13:03:08.620Z,100
2017-01-19T13:04:08.613Z,100
2017-01-19T13:05:08.538Z,95
2017-01-19T13:06:08.567Z,100
2017-01-19T13:07:08.872Z,100
2017-01-19T13:08:10.451Z,100
2017-01-19T13:09:08.897Z,100
2017-01-19T13:10:08.853Z,100
2017-01-19T13:11:08.574Z,100
2017-01-19T13:12:08.970Z,100
2017-01-19T13:13:08.862Z,100
2017-01-19T13:14:08.725Z,100
2017-01-19T13:15:08.650Z,100
2017-01-19T13:16:08.955Z,100
2017-01-19T13:17:10.729Z,100
2017-01-19T13:18:12.150Z,100
2017-01-19T13:19:14.453Z,100
2017-01-19T13:20:08.602Z,100
2017-01-19T13:21:08.771Z,100
2017-01-19T13:22:08.693Z,100
2017-01-19T13:23:08.802Z,100
2017-01-19T13:24:08.584Z,100
2017-01-19T13:25:08.558Z,100
2017-01-19T13:26:08.578Z,100
2017-01-19T13:27:08.736Z,95
2017-01-19T13:28:08.845Z,95
2017-01-19T13:29:08.732Z,95
2017-01-19T13:30:09.288Z,95
2017-01-19T13:31:08.593Z,95
2017-01-19T13:32:08.850Z,95
2017-01-19T13:33:08.673Z,95
2017-01-19T13:34:09.314Z,95
2017-01-19T13:35:08.747Z,95
2017-01-19T13:36:08.715Z,95
2017-01-19T13:37:08.575Z,95
2017-01-19T13:38:08.721Z,95
2017-01-19T13:39:09.796Z,95
2017-01-19T13:40:08.960Z,95
2017-01-19T13:41:10.165Z,95
2017-01-19T13:42:08.611Z,95
2017-01-19T13:43:08.590Z,95
2017-01-19T13:44:08.593Z,95
2017-01-19T13:45:08.580Z,95
2017-01-19T13:46:09.032Z,90
2017-01-19T13:47:08.913Z,90
2017-01-19T13:48:09.241Z,90
2017-01-19T13:49:09.064Z,90
2017-01-19T13:50:08.954Z,90
2017-01-19T13:51:08.581Z,90
2017-01-19T13:52:08.581Z,90
2017-01-19T13:53:08.641Z,90
2017-01-19T13:54:08.614Z,90
2017-01-19T13:55:08.578Z,90
2017-01-19T13:56:08.786Z,90
2017-01-19T13:57:08.606Z,90
2017-01-19T13:58:08.652Z,90
2017-01-19T13:59:08.587Z,90
2017-01-19T14:00:08.559Z,90
2017-01-19T14:01:08.596Z,90
2017-01-19T14:02:08.601Z,90
2017-01-19T14:03:12.879Z,85
2017-01-19T14:04:08.692Z,85
2017-01-19T14:05:08.819Z,85
2017-01-19T14:06:09.289Z,85
2017-01-19T14:07:08.901Z,85
2017-01-19T14:08:09.271Z,85
2017-01-19T14:09:09.101Z,85
2017-01-19T14:10:08.740Z,85
2017-01-19T14:11:08.601Z,85
2017-01-19T14:12:08.886Z,85
2017-01-19T14:13:08.929Z,85
2017-01-19T14:14:09.490Z,85
2017-01-19T14:15:09.004Z,85
2017-01-19T14:16:09.506Z,80
2017-01-19T14:17:09.071Z,80
2017-01-19T14:18:08.823Z,80
2017-01-19T14:19:09.046Z,80
2017-01-19T14:20:08.755Z,80
2017-01-19T14:21:08.631Z,80
2017-01-19T14:22:08.916Z,80
2017-01-19T14:23:13.893Z,80
2017-01-19T14:24:09.168Z,80
2017-01-19T14:25:08.876Z,80
2017-01-19T14:26:08.665Z,80
2017-01-19T14:27:09.311Z,75
2017-01-19T14:28:08.636Z,75
2017-01-19T14:29:08.623Z,75
2017-01-19T14:30:08.830Z,75
2017-01-19T14:31:08.650Z,75
2017-01-19T14:32:08.623Z,75
2017-01-19T14:33:08.620Z,75
2017-01-19T14:34:08.680Z,75
2017-01-19T14:35:08.924Z,75
2017-01-19T14:36:08.615Z,75
2017-01-19T14:37:08.806Z,70
2017-01-19T14:38:08.612Z,70
2017-01-19T14:39:08.624Z,70
2017-01-19T14:40:08.672Z,70
2017-01-19T14:41:09.535Z,70
2017-01-19T14:42:08.780Z,70
2017-01-19T14:43:08.602Z,70
2017-01-19T14:44:08.632Z,65
2017-01-19T14:45:08.638Z,65
2017-01-19T14:46:08.617Z,65
2017-01-19T14:47:08.722Z,65
2017-01-19T14:48:08.645Z,65
2017-01-19T14:49:08.636Z,65